createdAt,value
2023-01-19T00:01:52.630Z,5.26
2023-01-19T00:04:18.964Z,5.26
2023-01-19T00:06:45.299Z,5.22
2023-01-19T00:09:11.658Z,5.23
2023-01-19T00:11:38.019Z,5.22
2023-01-19T00:14:04.606Z,5.20
2023-01-19T00:16:30.944Z,5.20
2023-01-19T00:18:57.309Z,5.25
2023-01-19T00:21:23.667Z,5.22
2023-01-19T00:23:50.240Z,5.22
2023-01-19T00:26:16.774Z,5.19
2023-01-19T00:28:43.115Z,5.20
2023-01-19T00:31:09.509Z,5.19
2023-01-19T00:33:35.900Z,5.23
2023-01-19T00:36:02.224Z,5.20
2023-01-19T00:38:28.613Z,5.20
2023-01-19T00:40:54.963Z,5.19
2023-01-19T00:43:21.516Z,5.19
2023-01-19T00:45:48.085Z,5.19
2023-01-19T00:48:14.664Z,5.18
2023-01-19T00:50:41.210Z,5.20
2023-01-19T00:53:07.768Z,5.18
2023-01-19T00:55:34.762Z,5.16
2023-01-19T00:58:01.108Z,5.16
2023-01-19T01:00:27.492Z,5.18
2023-01-19T01:02:53.955Z,5.16
2023-01-19T01:05:20.337Z,5.15
2023-01-19T01:07:46.676Z,5.18
2023-01-19T01:10:13.068Z,5.16
2023-01-19T01:12:39.400Z,5.16
2023-01-19T01:15:05.841Z,5.15
2023-01-19T01:17:32.186Z,5.15
2023-01-19T01:19:58.528Z,5.12
2023-01-19T01:22:24.858Z,5.15
2023-01-19T01:24:51.190Z,5.13
2023-01-19T01:27:17.605Z,5.11
2023-01-19T01:29:43.946Z,5.12
2023-01-19T01:32:10.510Z,5.12
2023-01-19T01:34:36.869Z,5.15
2023-01-19T01:37:03.218Z,5.12
2023-01-19T01:39:29.587Z,5.12
2023-01-19T01:41:56.038Z,5.09
2023-01-19T01:44:23.970Z,5.11
2023-01-19T01:46:50.302Z,5.11
2023-01-19T01:49:16.638Z,5.09
2023-01-19T01:51:43.210Z,5.08
2023-01-19T01:54:09.766Z,5.09
2023-01-19T01:56:36.123Z,5.11
2023-01-19T01:59:02.494Z,5.08
2023-01-19T02:01:29.130Z,5.08
2023-01-19T02:03:55.876Z,5.09
2023-01-19T02:06:22.208Z,5.08
2023-01-19T02:08:48.535Z,5.07
2023-01-19T02:11:14.878Z,5.07
2023-01-19T02:13:41.240Z,5.07
2023-01-19T02:16:07.588Z,5.07
2023-01-19T02:18:34.159Z,5.07
2023-01-19T02:21:00.708Z,5.05
2023-01-19T02:23:27.073Z,5.04
2023-01-19T02:25:53.412Z,5.04
2023-01-19T02:28:19.955Z,5.02
2023-01-19T02:30:46.460Z,5.01
2023-01-19T02:33:13.060Z,5.05
2023-01-19T02:35:39.436Z,5.02
2023-01-19T02:38:05.931Z,5.02
2023-01-19T02:40:32.258Z,5.05
2023-01-19T02:42:59.215Z,5.02
2023-01-19T02:45:25.830Z,4.99
2023-01-19T02:47:52.180Z,5.04
2023-01-19T02:50:18.522Z,5.01
2023-01-19T02:52:44.873Z,5.02
2023-01-19T02:55:11.215Z,5.01
2023-01-19T02:57:37.546Z,4.99
2023-01-19T03:00:03.911Z,4.99
2023-01-19T03:02:30.475Z,4.99
2023-01-19T03:04:56.880Z,4.99
2023-01-19T03:07:23.467Z,4.99
2023-01-19T03:09:49.846Z,4.96
2023-01-19T03:12:16.440Z,4.98
2023-01-19T03:14:43.021Z,4.98
2023-01-19T03:17:09.555Z,4.98
2023-01-19T03:19:35.877Z,4.96
2023-01-19T03:22:02.215Z,4.98
2023-01-19T03:24:28.542Z,4.98
2023-01-19T03:26:54.857Z,4.98
2023-01-19T03:29:21.194Z,4.99
2023-01-19T03:31:47.777Z,4.96
2023-01-19T03:34:14.227Z,4.98
2023-01-19T03:36:40.590Z,4.93
2023-01-19T03:39:06.942Z,4.95
2023-01-19T03:41:33.329Z,4.96
2023-01-19T03:43:59.648Z,4.96
2023-01-19T03:46:26.025Z,4.95
2023-01-19T03:48:52.371Z,4.92
2023-01-19T03:51:18.927Z,4.93
2023-01-19T03:53:45.270Z,4.93
2023-01-19T03:56:11.610Z,4.93
2023-01-19T03:58:37.932Z,4.93
2023-01-19T04:01:04.502Z,4.95
2023-01-19T04:03:30.886Z,4.91
2023-01-19T04:05:57.452Z,4.92
2023-01-19T04:08:23.791Z,4.92
2023-01-19T04:10:50.347Z,4.93
2023-01-19T04:13:16.698Z,4.91
2023-01-19T04:15:43.113Z,4.92
2023-01-19T04:18:09.696Z,4.91
2023-01-19T04:20:36.062Z,4.92
2023-01-19T04:23:02.764Z,4.92
2023-01-19T04:25:29.391Z,4.89
2023-01-19T04:27:55.748Z,4.91
2023-01-19T04:30:22.095Z,4.91
2023-01-19T04:32:48.452Z,4.89
2023-01-19T04:35:14.795Z,4.88
2023-01-19T04:37:41.142Z,4.89
2023-01-19T04:40:07.692Z,4.88
2023-01-19T04:42:34.052Z,4.89
2023-01-19T04:45:00.422Z,4.87
2023-01-19T04:47:26.787Z,4.87
2023-01-19T04:49:53.132Z,4.87
2023-01-19T04:52:19.502Z,4.85
2023-01-19T04:54:45.889Z,4.88
2023-01-19T04:57:12.442Z,4.88
2023-01-19T04:59:38.767Z,4.85
2023-01-19T05:02:05.351Z,4.87
2023-01-19T05:04:31.767Z,4.87
2023-01-19T05:06:58.322Z,4.88
2023-01-19T05:09:24.693Z,4.84
2023-01-19T05:11:51.239Z,4.87
2023-01-19T05:14:17.576Z,4.85
2023-01-19T05:16:43.877Z,4.85
2023-01-19T05:19:10.382Z,4.85
2023-01-19T05:21:36.716Z,4.85
2023-01-19T05:24:03.284Z,4.81
2023-01-19T05:26:29.630Z,4.84
2023-01-19T05:28:55.970Z,4.85
2023-01-19T05:31:22.368Z,4.84
2023-01-19T05:33:48.799Z,4.81
2023-01-19T05:36:15.168Z,4.82
2023-01-19T05:38:41.527Z,4.82
2023-01-19T05:41:07.879Z,4.81
2023-01-19T05:43:34.250Z,4.81
2023-01-19T05:46:00.609Z,4.81
2023-01-19T05:48:26.964Z,4.81
2023-01-19T05:50:53.324Z,4.80
2023-01-19T05:53:19.677Z,4.78
2023-01-19T05:55:46.037Z,4.78
2023-01-19T05:58:12.408Z,4.78
2023-01-19T06:00:38.768Z,4.78
2023-01-19T06:03:05.352Z,4.77
2023-01-19T06:05:31.776Z,4.77
2023-01-19T06:07:58.322Z,4.78
2023-01-19T06:10:24.675Z,4.75
2023-01-19T06:12:51.059Z,4.75
2023-01-19T06:15:17.738Z,4.77
2023-01-19T06:17:44.059Z,4.77
2023-01-19T06:20:10.431Z,4.77
2023-01-19T06:22:36.806Z,4.72
2023-01-19T06:25:05.677Z,4.72
2023-01-19T06:27:32.222Z,4.75
2023-01-19T06:29:58.576Z,4.74
2023-01-19T06:32:25.148Z,4.77
2023-01-19T06:34:53.862Z,4.74
2023-01-19T06:37:20.396Z,4.72
2023-01-19T06:39:46.976Z,4.72
2023-01-19T06:42:13.304Z,4.72
2023-01-19T06:44:39.652Z,4.71
2023-01-19T06:47:15.607Z,4.70
2023-01-19T06:49:42.634Z,4.72
2023-01-19T06:52:08.995Z,4.72
2023-01-19T06:54:35.356Z,4.71
2023-01-19T06:57:02.788Z,4.70
2023-01-19T06:59:29.843Z,4.68
2023-01-19T07:01:56.355Z,4.70
2023-01-19T07:04:22.893Z,4.71
2023-01-19T07:06:49.250Z,4.68
2023-01-19T07:09:16.898Z,4.70
2023-01-19T07:11:43.347Z,4.71
2023-01-19T07:14:09.695Z,4.72
2023-01-19T07:16:36.069Z,4.82
2023-01-19T07:19:02.474Z,4.81
2023-01-19T07:21:29.398Z,4.85
2023-01-19T07:23:55.859Z,4.91
2023-01-19T07:26:22.416Z,5.01
2023-01-19T07:28:51.072Z,5.08
2023-01-19T07:31:17.629Z,5.13
2023-01-19T07:33:44.122Z,5.20
2023-01-19T07:36:10.506Z,5.29
2023-01-19T07:38:36.920Z,5.33
2023-01-19T07:41:03.304Z,5.56
2023-01-19T07:43:30.594Z,5.71
2023-01-19T07:45:57.118Z,5.59
2023-01-19T07:48:23.607Z,5.44
2023-01-19T07:50:49.954Z,5.33
2023-01-19T07:53:16.324Z,5.26
2023-01-19T07:55:42.810Z,5.20
2023-01-19T07:58:09.191Z,5.15
2023-01-19T08:00:35.611Z,5.12
2023-01-19T08:03:02.353Z,5.07
2023-01-19T08:05:28.984Z,5.05
2023-01-19T08:07:55.566Z,5.04
2023-01-19T08:10:22.095Z,4.99
2023-01-19T08:12:48.490Z,4.98
2023-01-19T08:15:14.858Z,4.98
2023-01-19T08:17:41.271Z,4.93
2023-01-19T08:20:07.626Z,4.93
2023-01-19T08:22:33.948Z,4.93
2023-01-19T08:25:00.278Z,4.93
2023-01-19T08:27:27.628Z,4.89
2023-01-19T08:29:57.535Z,4.88
2023-01-19T08:32:23.949Z,4.88
2023-01-19T08:34:50.345Z,4.85
2023-01-19T08:37:16.671Z,4.84
2023-01-19T08:39:43.004Z,4.85
2023-01-19T08:42:09.547Z,4.84
2023-01-19T08:44:37.864Z,4.82
2023-01-19T08:47:07.764Z,4.82
2023-01-19T08:49:34.117Z,4.84
2023-01-19T08:52:00.463Z,4.82
2023-01-19T08:54:26.869Z,4.81
2023-01-19T08:56:53.203Z,4.82
2023-01-19T08:59:19.565Z,4.82
2023-01-19T09:01:46.018Z,4.82
2023-01-19T09:04:12.450Z,4.84
2023-01-19T09:06:38.810Z,4.81
2023-01-19T09:09:05.187Z,4.82
2023-01-19T09:11:31.543Z,4.81
2023-01-19T09:14:00.440Z,4.84
2023-01-19T09:16:27.176Z,4.82
2023-01-19T09:18:53.645Z,4.81
2023-01-19T09:21:20.017Z,4.84
2023-01-19T09:23:46.605Z,4.81
2023-01-19T09:26:13.062Z,4.81
2023-01-19T09:28:39.415Z,4.84
2023-01-19T09:31:05.939Z,4.82
2023-01-19T09:33:32.413Z,4.81
2023-01-19T09:35:58.762Z,4.81
2023-01-19T09:38:25.111Z,4.81
2023-01-19T09:40:51.454Z,4.82
2023-01-19T09:43:17.788Z,4.84
2023-01-19T09:45:44.146Z,4.82
2023-01-19T09:48:10.487Z,4.93
2023-01-19T09:50:36.843Z,4.87
2023-01-19T09:53:03.300Z,4.89
2023-01-19T09:55:29.713Z,4.89
2023-01-19T09:57:56.044Z,4.91
2023-01-19T10:00:22.623Z,4.88
2023-01-19T10:02:49.016Z,4.87
2023-01-19T10:05:15.345Z,4.85
2023-01-19T10:07:41.910Z,4.85
2023-01-19T10:10:11.469Z,4.87
2023-01-19T10:12:37.829Z,4.85
2023-01-19T10:15:04.164Z,4.85
2023-01-19T10:17:30.503Z,4.85
2023-01-19T10:19:56.830Z,4.87
2023-01-19T10:22:23.184Z,4.88
2023-01-19T10:24:49.529Z,4.88
2023-01-19T10:27:15.876Z,4.87
2023-01-19T10:29:42.263Z,4.87
2023-01-19T10:32:08.649Z,4.87
2023-01-19T10:34:35.008Z,4.85
2023-01-19T10:37:01.584Z,4.85
2023-01-19T10:39:27.969Z,4.87
2023-01-19T10:41:54.304Z,4.85
2023-01-19T10:44:20.632Z,4.82
2023-01-19T10:46:46.977Z,4.82
2023-01-19T10:49:13.341Z,4.82
2023-01-19T10:51:39.684Z,4.82
2023-01-19T10:54:06.048Z,4.82
2023-01-19T10:56:32.430Z,4.82
2023-01-19T10:58:58.831Z,4.84
2023-01-19T11:01:25.266Z,4.84
2023-01-19T11:03:51.997Z,4.81
2023-01-19T11:06:18.370Z,4.84
2023-01-19T11:08:44.721Z,4.85
2023-01-19T11:11:11.123Z,4.84
2023-01-19T11:13:37.496Z,4.88
2023-01-19T11:16:03.873Z,4.92
2023-01-19T11:18:30.257Z,5.02
2023-01-19T11:20:56.600Z,5.02
2023-01-19T11:23:22.958Z,4.95
2023-01-19T11:25:49.331Z,4.91
2023-01-19T11:28:15.697Z,4.92
2023-01-19T11:30:42.270Z,4.88
2023-01-19T11:33:08.618Z,4.88
2023-01-19T11:35:34.977Z,4.93
2023-01-19T11:38:01.342Z,4.85
2023-01-19T11:40:27.727Z,4.88
2023-01-19T11:42:54.058Z,4.92
2023-01-19T11:45:20.422Z,4.89
2023-01-19T11:47:46.773Z,4.88
2023-01-19T11:50:13.126Z,4.89
2023-01-19T11:52:40.767Z,4.92
2023-01-19T11:55:08.058Z,4.93
2023-01-19T11:57:34.422Z,4.92
2023-01-19T12:00:00.797Z,4.92
2023-01-19T12:02:27.242Z,4.92
2023-01-19T12:04:53.603Z,4.91
2023-01-19T12:07:19.955Z,4.91
2023-01-19T12:09:46.307Z,4.93
2023-01-19T12:12:12.881Z,4.91
2023-01-19T12:14:39.229Z,4.92
2023-01-19T12:17:05.607Z,4.89
2023-01-19T12:19:31.973Z,4.91
2023-01-19T12:21:58.516Z,4.92
2023-01-19T12:24:24.999Z,4.95
2023-01-19T12:26:51.399Z,4.93
2023-01-19T12:29:17.766Z,4.92
2023-01-19T12:31:44.458Z,4.92
2023-01-19T12:34:10.901Z,4.93
2023-01-19T12:36:37.234Z,4.93
2023-01-19T12:39:03.598Z,4.93
2023-01-19T12:41:29.966Z,4.95
2023-01-19T12:43:56.557Z,4.99
2023-01-19T12:46:22.943Z,5.02
2023-01-19T12:48:49.299Z,4.96
2023-01-19T12:51:15.650Z,4.92
2023-01-19T12:53:41.980Z,4.96
2023-01-19T12:56:08.321Z,4.96
2023-01-19T12:58:34.668Z,4.95
2023-01-19T13:01:01.044Z,4.96
2023-01-19T13:03:27.458Z,4.96
2023-01-19T13:05:54.003Z,4.98
2023-01-19T13:08:20.339Z,4.95
2023-01-19T13:10:46.696Z,4.96
2023-01-19T13:13:13.043Z,4.95
2023-01-19T13:15:39.409Z,4.96
2023-01-19T13:18:05.809Z,4.96
2023-01-19T13:20:32.154Z,4.96
2023-01-19T13:22:58.716Z,4.96
2023-01-19T13:25:25.055Z,4.96
2023-01-19T13:27:51.398Z,4.96
2023-01-19T13:30:17.850Z,4.95
2023-01-19T13:32:44.261Z,4.98
2023-01-19T13:35:10.621Z,4.96
2023-01-19T13:37:36.965Z,4.98
2023-01-19T13:40:03.610Z,4.96
2023-01-19T13:42:29.987Z,4.98
2023-01-19T13:44:56.360Z,4.98
2023-01-19T13:47:22.721Z,4.99
2023-01-19T13:49:49.056Z,4.98
2023-01-19T13:52:15.458Z,4.95
2023-01-19T13:54:42.193Z,5.02
2023-01-19T13:57:08.594Z,4.72
2023-01-19T13:59:34.994Z,4.82
2023-01-19T14:02:01.505Z,4.88
2023-01-19T14:04:28.378Z,4.96
2023-01-19T14:06:54.782Z,4.99
2023-01-19T14:09:21.190Z,4.96
2023-01-19T14:11:47.658Z,4.96
2023-01-19T14:14:14.035Z,4.96
2023-01-19T14:16:40.393Z,4.98
2023-01-19T14:19:06.749Z,4.96
2023-01-19T14:21:33.079Z,4.98
2023-01-19T14:23:59.432Z,4.99
2023-01-19T14:26:25.766Z,4.96
2023-01-19T14:28:52.119Z,4.98
2023-01-19T14:31:18.760Z,4.96
2023-01-19T14:33:45.122Z,4.98
2023-01-19T14:36:11.473Z,4.96
2023-01-19T14:38:37.826Z,4.96
2023-01-19T14:41:04.158Z,4.99
2023-01-19T14:43:30.515Z,4.98
2023-01-19T14:45:56.874Z,4.99
2023-01-19T14:48:23.231Z,4.99
2023-01-19T14:51:02.392Z,5.02
2023-01-19T14:53:29.986Z,4.95
2023-01-19T14:55:56.360Z,4.98
2023-01-19T14:58:22.712Z,5.15
2023-01-19T15:00:49.263Z,5.08
2023-01-19T15:03:15.906Z,4.95
2023-01-19T15:05:42.250Z,4.85
2023-01-19T15:08:08.605Z,4.80
2023-01-19T15:10:34.943Z,4.68
2023-01-19T15:13:01.270Z,4.64
2023-01-19T15:15:27.599Z,4.74
2023-01-19T15:17:56.144Z,4.78
2023-01-19T15:20:22.969Z,5.53
2023-01-19T15:22:49.308Z,5.29
2023-01-19T15:25:15.662Z,5.07
2023-01-19T15:27:42.037Z,4.93
2023-01-19T15:30:08.379Z,4.80
2023-01-19T15:32:34.737Z,5.20
2023-01-19T15:35:01.302Z,4.98
2023-01-19T15:37:27.844Z,4.98
2023-01-19T15:39:54.204Z,5.64
2023-01-19T15:42:20.562Z,5.32
2023-01-19T15:44:46.916Z,5.16
2023-01-19T15:47:13.271Z,5.12
2023-01-19T15:49:39.610Z,5.12
2023-01-19T15:52:05.949Z,5.12
2023-01-19T15:54:32.513Z,5.30
2023-01-19T15:56:58.856Z,5.59
2023-01-19T15:59:25.208Z,5.75
2023-01-19T16:01:51.760Z,5.40
2023-01-19T16:04:18.258Z,5.23
2023-01-19T16:06:44.615Z,5.08
2023-01-19T16:09:10.965Z,5.95
2023-01-19T16:11:37.335Z,5.47
2023-01-19T16:14:03.673Z,5.23
2023-01-19T16:16:30.044Z,5.12
2023-01-19T16:18:56.652Z,5.11
2023-01-19T16:21:23.037Z,5.08
2023-01-19T16:23:49.391Z,5.09
2023-01-19T16:26:17.555Z,5.04
2023-01-19T16:28:44.082Z,5.08
2023-01-19T16:31:10.424Z,5.11
2023-01-19T16:33:36.755Z,5.11
2023-01-19T16:36:03.091Z,5.08
2023-01-19T16:38:29.425Z,5.08
2023-01-19T16:40:55.885Z,5.07
2023-01-19T16:43:22.298Z,5.08
2023-01-19T16:45:49.009Z,5.05
2023-01-19T16:48:15.401Z,5.05
2023-01-19T16:50:41.760Z,5.08
2023-01-19T16:53:08.123Z,5.08
2023-01-19T16:55:34.484Z,5.08
2023-01-19T16:58:00.822Z,5.08
2023-01-19T17:00:27.210Z,5.07
2023-01-19T17:02:53.595Z,5.04
2023-01-19T17:05:19.991Z,5.08
2023-01-19T17:07:46.579Z,5.07
2023-01-19T17:10:13.260Z,5.05
2023-01-19T17:12:39.820Z,5.07
2023-01-19T17:15:06.151Z,5.07
2023-01-19T17:17:32.504Z,5.07
2023-01-19T17:19:58.829Z,5.07
2023-01-19T17:22:25.196Z,5.07
2023-01-19T17:24:51.562Z,5.08
2023-01-19T17:27:17.896Z,5.08
2023-01-19T17:29:44.232Z,5.05
2023-01-19T17:32:10.605Z,5.05
2023-01-19T17:34:36.967Z,5.05
2023-01-19T17:37:03.439Z,5.04
2023-01-19T17:39:31.072Z,5.05
2023-01-19T17:41:57.403Z,5.04
2023-01-19T17:44:24.736Z,5.05
2023-01-19T17:46:51.075Z,5.04
2023-01-19T17:49:17.445Z,5.07
2023-01-19T17:51:46.821Z,5.07
2023-01-19T17:54:13.171Z,5.07
2023-01-19T17:56:39.524Z,5.04
2023-01-19T17:59:05.889Z,5.07
2023-01-19T18:01:32.391Z,5.07
2023-01-19T18:03:59.037Z,5.02
2023-01-19T18:06:25.405Z,5.07
2023-01-19T18:08:51.755Z,5.04
2023-01-19T18:11:18.120Z,5.02
2023-01-19T18:13:44.486Z,5.05
2023-01-19T18:16:10.874Z,5.07
2023-01-19T18:18:37.248Z,5.04
2023-01-19T18:21:04.249Z,5.02
2023-01-19T18:23:30.605Z,5.05
2023-01-19T18:25:57.150Z,5.02
2023-01-19T18:28:23.470Z,5.04
2023-01-19T18:30:49.876Z,5.04
2023-01-19T18:33:16.262Z,5.05
2023-01-19T18:35:42.835Z,5.04
2023-01-19T18:38:09.211Z,5.05
2023-01-19T18:40:35.598Z,5.05
2023-01-19T18:43:01.959Z,5.04
2023-01-19T18:45:28.326Z,5.04
2023-01-19T18:47:54.663Z,5.04
2023-01-19T18:50:21.026Z,5.04
2023-01-19T18:52:47.584Z,5.04
2023-01-19T18:55:13.944Z,5.02
2023-01-19T18:57:40.516Z,5.04
2023-01-19T19:00:06.879Z,5.01
2023-01-19T19:02:33.442Z,5.05
2023-01-19T19:04:59.762Z,5.05
2023-01-19T19:07:26.092Z,5.04
2023-01-19T19:09:52.468Z,5.02
2023-01-19T19:12:18.850Z,5.05
2023-01-19T19:14:45.198Z,5.04
2023-01-19T19:17:11.531Z,5.02
2023-01-19T19:19:37.906Z,5.01
2023-01-19T19:22:04.278Z,5.04
2023-01-19T19:24:30.635Z,5.04
2023-01-19T19:26:56.971Z,5.04
2023-01-19T19:29:23.318Z,5.05
2023-01-19T19:31:50.235Z,5.11
2023-01-19T19:34:16.600Z,5.19
2023-01-19T19:36:42.954Z,5.15
2023-01-19T19:39:09.324Z,5.13
2023-01-19T19:41:35.698Z,5.07
2023-01-19T19:44:02.047Z,5.05
2023-01-19T19:46:28.591Z,5.04
2023-01-19T19:48:57.411Z,5.01
2023-01-19T19:51:23.807Z,4.99
2023-01-19T19:53:51.468Z,5.02
2023-01-19T19:56:17.963Z,4.99
2023-01-19T19:58:44.540Z,4.99
2023-01-19T20:01:10.970Z,5.01
2023-01-19T20:03:37.357Z,5.01
2023-01-19T20:06:03.697Z,4.99
2023-01-19T20:08:30.284Z,4.99
2023-01-19T20:10:56.620Z,4.98
2023-01-19T20:13:22.940Z,4.98
2023-01-19T20:15:49.308Z,4.93
2023-01-19T20:18:15.704Z,4.98
2023-01-19T20:20:42.047Z,4.98
2023-01-19T20:23:08.370Z,4.96
2023-01-19T20:25:35.108Z,4.98
2023-01-19T20:28:01.476Z,4.96
2023-01-19T20:30:27.834Z,4.99
2023-01-19T20:32:54.205Z,4.96
2023-01-19T20:35:21.136Z,4.98
2023-01-19T20:37:47.486Z,4.96
2023-01-19T20:40:13.879Z,4.98
2023-01-19T20:42:40.204Z,4.96
2023-01-19T20:45:06.750Z,4.95
2023-01-19T20:47:33.083Z,4.96
2023-01-19T20:49:59.420Z,4.95
2023-01-19T20:52:25.781Z,4.98
2023-01-19T20:54:52.236Z,4.98
2023-01-19T20:57:18.589Z,4.93
2023-01-19T20:59:44.943Z,4.96
2023-01-19T21:02:11.349Z,4.93
2023-01-19T21:04:37.743Z,4.96
2023-01-19T21:07:04.110Z,4.98
2023-01-19T21:09:30.469Z,4.95
2023-01-19T21:11:57.648Z,4.96
2023-01-19T21:14:24.068Z,4.95
2023-01-19T21:16:50.417Z,4.93
2023-01-19T21:19:17.979Z,4.98
2023-01-19T21:21:44.327Z,4.95
2023-01-19T21:24:10.870Z,4.96
2023-01-19T21:26:37.223Z,4.95
2023-01-19T21:29:03.582Z,4.95
2023-01-19T21:31:29.973Z,4.93
2023-01-19T21:33:57.072Z,4.95
2023-01-19T21:36:23.411Z,4.95
2023-01-19T21:38:49.732Z,4.95
2023-01-19T21:41:16.096Z,4.93
2023-01-19T21:43:42.437Z,4.91
2023-01-19T21:46:08.789Z,4.92
2023-01-19T21:48:35.371Z,4.93
2023-01-19T21:51:01.726Z,4.92
2023-01-19T21:53:28.296Z,4.95
2023-01-19T21:55:54.627Z,4.93
2023-01-19T21:58:20.967Z,4.92
2023-01-19T22:00:47.320Z,4.96
2023-01-19T22:03:13.833Z,4.93
2023-01-19T22:05:40.439Z,4.92
2023-01-19T22:08:06.774Z,4.92
2023-01-19T22:10:33.122Z,4.93
2023-01-19T22:12:59.469Z,4.92
2023-01-19T22:15:25.800Z,4.93
2023-01-19T22:17:52.147Z,4.92
2023-01-19T22:20:18.488Z,4.91
2023-01-19T22:22:44.843Z,4.93
2023-01-19T22:25:11.544Z,4.92
2023-01-19T22:27:38.042Z,4.91
2023-01-19T22:30:04.375Z,4.89
2023-01-19T22:32:30.738Z,4.93
2023-01-19T22:34:57.060Z,4.92
2023-01-19T22:37:23.387Z,4.92
2023-01-19T22:39:49.749Z,4.92
2023-01-19T22:42:16.105Z,4.92
2023-01-19T22:44:42.450Z,4.92
2023-01-19T22:47:08.820Z,4.91
2023-01-19T22:49:35.202Z,4.92
2023-01-19T22:52:01.561Z,4.89
2023-01-19T22:54:27.924Z,4.92
2023-01-19T22:56:54.276Z,4.89
2023-01-19T22:59:20.650Z,4.92
2023-01-19T23:01:47.230Z,4.92
2023-01-19T23:04:13.702Z,4.91
2023-01-19T23:06:40.259Z,4.92
2023-01-19T23:09:06.588Z,4.92
2023-01-19T23:11:35.602Z,4.92
2023-01-19T23:14:02.282Z,4.91
2023-01-19T23:16:28.649Z,4.89
2023-01-19T23:18:56.247Z,4.92
2023-01-19T23:21:22.601Z,4.89
2023-01-19T23:23:49.146Z,4.92
2023-01-19T23:26:15.496Z,4.92
2023-01-19T23:28:42.064Z,4.89
2023-01-19T23:31:08.533Z,4.91
2023-01-19T23:33:34.906Z,4.87
2023-01-19T23:36:01.257Z,4.93
2023-01-19T23:38:27.600Z,4.95
2023-01-19T23:40:54.137Z,4.92
2023-01-19T23:43:20.506Z,4.89
2023-01-19T23:45:46.837Z,4.91
2023-01-19T23:48:13.168Z,4.91
2023-01-19T23:50:39.500Z,4.92
2023-01-19T23:53:05.823Z,4.91
2023-01-19T23:55:32.377Z,4.89
2023-01-19T23:57:58.702Z,4.89
